createdAt,value
2018-06-23T00:02:35.103Z,2.65
2018-06-23T00:05:10.158Z,2.45
2018-06-23T00:07:45.426Z,2.67
2018-06-23T00:10:20.570Z,2.50
2018-06-23T00:12:55.530Z,2.12
2018-06-23T00:15:31.042Z,2.60
2018-06-23T00:18:06.529Z,3.13
2018-06-23T00:20:41.786Z,2.95
2018-06-23T00:23:17.010Z,3.50
2018-06-23T00:25:57.571Z,3.85
2018-06-23T00:28:32.898Z,3.20
2018-06-23T00:31:08.190Z,2.60
2018-06-23T00:33:43.500Z,2.77
2018-06-23T00:36:18.637Z,2.60
2018-06-23T00:38:53.880Z,2.87
2018-06-23T00:41:29.026Z,2.58
2018-06-23T00:44:04.246Z,3.27
2018-06-23T00:46:39.275Z,2.70
2018-06-23T00:49:14.312Z,2.33
2018-06-23T00:51:49.699Z,2.83
2018-06-23T00:54:24.767Z,2.27
2018-06-23T00:56:59.832Z,2.55
2018-06-23T00:59:42.095Z,2.25
2018-06-23T01:02:17.380Z,2.30
2018-06-23T01:04:52.543Z,2.40
2018-06-23T01:07:27.859Z,2.50
2018-06-23T01:10:03.188Z,2.30
2018-06-23T01:12:38.210Z,2.60
2018-06-23T01:15:13.199Z,2.55
2018-06-23T01:17:48.368Z,3.27
2018-06-23T01:20:23.544Z,2.35
2018-06-23T01:22:59.030Z,2.30
2018-06-23T01:25:34.094Z,2.52
2018-06-23T01:28:09.291Z,2.60
2018-06-23T01:30:44.351Z,2.37
2018-06-23T01:33:19.527Z,2.87
2018-06-23T01:35:54.816Z,3.10
2018-06-23T01:38:30.092Z,2.10
2018-06-23T01:41:05.575Z,2.72
2018-06-23T01:43:40.972Z,2.80
2018-06-23T01:46:16.039Z,2.37
2018-06-23T01:48:51.307Z,2.52
2018-06-23T01:51:26.519Z,2.60
2018-06-23T01:54:01.722Z,2.42
2018-06-23T01:56:36.824Z,2.95
2018-06-23T01:59:12.102Z,2.45
2018-06-23T02:01:47.230Z,2.45
2018-06-23T02:04:22.549Z,2.35
2018-06-23T02:06:57.671Z,2.60
2018-06-23T02:09:32.386Z,2.42
2018-06-23T02:12:07.401Z,2.58
2018-06-23T02:14:47.957Z,2.47
2018-06-23T02:17:28.252Z,2.67
2018-06-23T02:20:09.091Z,2.65
2018-06-23T02:22:49.653Z,2.33
2018-06-23T02:25:30.090Z,2.55
2018-06-23T02:28:10.641Z,2.40
2018-06-23T02:30:51.135Z,2.58
2018-06-23T02:33:31.354Z,2.43
2018-06-23T02:36:06.572Z,2.50
2018-06-23T02:38:41.749Z,2.52
2018-06-23T02:41:16.951Z,2.70
2018-06-23T02:43:52.083Z,2.35
2018-06-23T02:46:27.234Z,2.87
2018-06-23T02:49:02.332Z,2.70
2018-06-23T02:51:37.699Z,2.83
2018-06-23T02:54:12.857Z,3.22
2018-06-23T02:56:47.630Z,2.65
2018-06-23T02:59:22.689Z,2.37
2018-06-23T03:01:57.902Z,2.40
2018-06-23T03:04:32.942Z,2.52
2018-06-23T03:07:08.282Z,2.85
2018-06-23T03:09:43.582Z,2.20
2018-06-23T03:12:18.635Z,2.65
2018-06-23T03:14:53.713Z,2.50
2018-06-23T03:17:28.736Z,2.97
2018-06-23T03:20:04.051Z,2.50
2018-06-23T03:22:39.225Z,2.25
2018-06-23T03:25:14.555Z,2.65
2018-06-23T03:27:49.801Z,3.00
2018-06-23T03:30:24.964Z,2.30
2018-06-23T03:33:00.179Z,2.77
2018-06-23T03:35:35.242Z,2.70
2018-06-23T03:38:10.450Z,2.70
2018-06-23T03:40:45.502Z,2.90
2018-06-23T03:43:20.547Z,3.15
2018-06-23T03:45:55.879Z,2.70
2018-06-23T03:48:30.973Z,2.50
2018-06-23T03:51:06.300Z,2.50
2018-06-23T03:53:41.422Z,3.15
2018-06-23T03:56:16.560Z,2.83
2018-06-23T03:58:52.190Z,2.95
2018-06-23T04:01:27.419Z,3.10
2018-06-23T04:04:02.595Z,3.03
2018-06-23T04:06:37.664Z,2.60
2018-06-23T04:09:12.826Z,2.98
2018-06-23T04:11:49.454Z,2.83
2018-06-23T04:14:24.841Z,3.05
2018-06-23T04:17:00.052Z,3.27
2018-06-23T04:19:35.130Z,2.70
2018-06-23T04:22:10.483Z,3.02
2018-06-23T04:24:45.684Z,2.67
2018-06-23T04:27:21.033Z,2.70
2018-06-23T04:29:56.155Z,2.52
2018-06-23T04:32:31.291Z,3.10
2018-06-23T04:35:06.742Z,3.12
2018-06-23T04:37:41.960Z,2.95
2018-06-23T04:40:17.311Z,2.58
2018-06-23T04:42:52.347Z,2.67
2018-06-23T04:45:27.403Z,2.70
2018-06-23T04:48:02.808Z,4.13
2018-06-23T04:50:38.093Z,2.98
2018-06-23T04:53:13.127Z,2.90
2018-06-23T04:55:50.297Z,2.90
2018-06-23T04:58:25.263Z,2.90
2018-06-23T05:01:00.456Z,3.45
2018-06-23T05:03:35.683Z,3.20
2018-06-23T05:06:10.773Z,3.70
2018-06-23T05:08:46.007Z,2.98
2018-06-23T05:11:21.410Z,3.12
2018-06-23T05:13:56.602Z,3.10
2018-06-23T05:16:31.919Z,3.05
2018-06-23T05:19:07.206Z,3.20
2018-06-23T05:21:42.401Z,3.85
2018-06-23T05:24:17.610Z,3.05
2018-06-23T05:26:52.879Z,3.55
2018-06-23T05:29:27.955Z,3.15
2018-06-23T05:32:03.256Z,3.05
2018-06-23T05:34:38.455Z,3.15
2018-06-23T05:37:13.599Z,2.95
2018-06-23T05:39:48.732Z,2.85
2018-06-23T05:42:23.842Z,3.20
2018-06-23T05:44:59.047Z,2.90
2018-06-23T05:47:34.045Z,2.83
2018-06-23T05:50:09.112Z,3.40
2018-06-23T05:52:44.210Z,3.20
2018-06-23T05:55:19.567Z,2.87
2018-06-23T05:57:54.786Z,4.03
2018-06-23T06:00:30.035Z,3.33
2018-06-23T06:03:05.129Z,3.70
2018-06-23T06:05:40.317Z,3.50
2018-06-23T06:08:15.596Z,3.47
2018-06-23T06:10:51.067Z,3.77
2018-06-23T06:13:26.182Z,4.00
2018-06-23T06:16:01.389Z,4.33
2018-06-23T06:18:36.643Z,4.30
2018-06-23T06:21:11.774Z,4.10
2018-06-23T06:23:47.154Z,4.10
2018-06-23T06:26:22.371Z,5.60
2018-06-23T06:28:57.512Z,4.42
2018-06-23T06:31:32.735Z,5.08
2018-06-23T06:34:07.877Z,4.67
2018-06-23T06:36:43.018Z,5.03
2018-06-23T06:39:18.210Z,4.57
2018-06-23T06:41:53.290Z,5.20
2018-06-23T06:44:28.599Z,4.60
2018-06-23T06:47:03.843Z,4.37
2018-06-23T06:49:39.102Z,4.03
2018-06-23T06:52:14.343Z,5.20
2018-06-23T06:54:49.590Z,4.50
2018-06-23T06:57:24.788Z,4.47
2018-06-23T07:00:00.116Z,5.60
2018-06-23T07:02:35.208Z,4.30
2018-06-23T07:05:10.503Z,5.20
2018-06-23T07:07:45.690Z,4.83
2018-06-23T07:10:20.918Z,4.57
2018-06-23T07:12:56.256Z,4.60
2018-06-23T07:15:31.520Z,4.97
2018-06-23T07:18:06.542Z,4.50
2018-06-23T07:20:41.789Z,4.20
2018-06-23T07:23:17.074Z,5.10
2018-06-23T07:25:52.294Z,4.67
2018-06-23T07:28:27.428Z,4.43
2018-06-23T07:31:02.943Z,4.80
2018-06-23T07:33:38.038Z,4.63
2018-06-23T07:36:13.251Z,4.77
2018-06-23T07:38:48.715Z,4.63
2018-06-23T07:41:24.060Z,4.37
2018-06-23T07:43:59.315Z,4.60
2018-06-23T07:46:34.936Z,4.70
2018-06-23T07:49:10.212Z,5.43
2018-06-23T07:51:45.358Z,4.97
2018-06-23T07:54:20.541Z,4.50
2018-06-23T07:56:55.706Z,3.87
2018-06-23T07:59:31.241Z,3.93
2018-06-23T08:02:06.528Z,4.03
2018-06-23T08:04:41.746Z,4.37
2018-06-23T08:07:17.204Z,4.30
2018-06-23T08:09:52.380Z,4.10
2018-06-23T08:12:27.658Z,4.37
2018-06-23T08:15:02.888Z,3.40
2018-06-23T08:17:38.292Z,4.40
2018-06-23T08:20:13.580Z,3.90
2018-06-23T08:22:48.760Z,3.47
2018-06-23T08:25:24.022Z,4.23
2018-06-23T08:27:59.433Z,4.37
2018-06-23T08:30:34.458Z,4.10
2018-06-23T08:33:09.529Z,3.53
2018-06-23T08:35:44.738Z,3.50
2018-06-23T08:38:19.941Z,3.87
2018-06-23T08:40:55.072Z,3.70
2018-06-23T08:43:30.417Z,4.00
2018-06-23T08:46:05.687Z,3.07
2018-06-23T08:48:40.886Z,2.93
2018-06-23T08:51:15.958Z,2.90
2018-06-23T08:53:51.433Z,3.70
2018-06-23T08:56:26.519Z,3.13
2018-06-23T08:59:01.635Z,2.93
2018-06-23T09:01:36.817Z,4.27
2018-06-23T09:04:11.987Z,3.47
2018-06-23T09:06:47.292Z,3.50
2018-06-23T09:09:22.684Z,2.80
2018-06-23T09:11:58.005Z,2.90
2018-06-23T09:14:33.213Z,3.20
2018-06-23T09:17:09.017Z,2.60
2018-06-23T09:19:45.153Z,2.57
2018-06-23T09:22:20.500Z,2.60
2018-06-23T09:24:55.675Z,2.30
2018-06-23T09:27:30.822Z,2.40
2018-06-23T09:30:06.263Z,2.03
2018-06-23T09:32:41.533Z,1.57
2018-06-23T09:35:16.840Z,1.97
2018-06-23T09:37:52.028Z,1.80
2018-06-23T09:40:27.131Z,1.97
2018-06-23T09:43:02.633Z,2.07
2018-06-23T09:45:38.052Z,2.00
2018-06-23T09:48:12.840Z,2.10
2018-06-23T09:50:48.159Z,1.50
2018-06-23T09:53:23.357Z,1.73
2018-06-23T09:55:58.503Z,2.60
2018-06-23T09:58:33.784Z,2.07
2018-06-23T10:01:09.137Z,1.83
2018-06-23T10:03:44.448Z,2.20
2018-06-23T10:06:20.380Z,1.60
2018-06-23T10:08:55.544Z,2.20
2018-06-23T10:11:30.882Z,1.63
2018-06-23T10:14:06.787Z,1.80
2018-06-23T10:16:41.905Z,2.23
2018-06-23T10:19:17.172Z,2.03
2018-06-23T10:21:52.432Z,1.83
2018-06-23T10:24:27.663Z,1.70
2018-06-23T10:27:02.992Z,2.10
2018-06-23T10:29:38.221Z,1.90
2018-06-23T10:32:13.421Z,1.53
2018-06-23T10:34:48.663Z,1.67
2018-06-23T10:37:23.767Z,1.53
2018-06-23T10:39:59.022Z,1.70
2018-06-23T10:42:34.076Z,1.50
2018-06-23T10:45:09.312Z,1.77
2018-06-23T10:47:44.564Z,1.80
2018-06-23T10:50:19.690Z,1.60
2018-06-23T10:52:54.847Z,2.30
2018-06-23T10:55:30.271Z,2.33
2018-06-23T10:58:05.418Z,2.10
2018-06-23T11:00:40.476Z,2.63
2018-06-23T11:03:15.724Z,2.20
2018-06-23T11:05:51.188Z,2.10
2018-06-23T11:08:26.446Z,1.73
2018-06-23T11:11:01.600Z,1.83
2018-06-23T11:13:36.688Z,2.23
2018-06-23T11:16:11.863Z,2.10
2018-06-23T11:18:47.020Z,1.73
2018-06-23T11:21:22.325Z,1.77
2018-06-23T11:23:57.685Z,2.10
2018-06-23T11:26:32.847Z,2.30
2018-06-23T11:29:07.975Z,1.70
2018-06-23T11:31:43.114Z,1.90
2018-06-23T11:34:18.208Z,2.17
2018-06-23T11:36:53.227Z,2.63
2018-06-23T11:39:28.646Z,1.97
2018-06-23T11:42:03.954Z,2.20
2018-06-23T11:44:39.108Z,1.97
2018-06-23T11:47:14.243Z,2.20
2018-06-23T11:49:49.401Z,2.20
2018-06-23T11:52:24.529Z,2.17
2018-06-23T11:54:59.786Z,1.97
2018-06-23T11:57:35.079Z,2.30
2018-06-23T12:00:10.571Z,2.30
2018-06-23T12:02:45.853Z,2.70
2018-06-23T12:05:21.198Z,2.33
2018-06-23T12:07:56.292Z,2.00
2018-06-23T12:10:31.551Z,2.10
2018-06-23T12:13:06.980Z,2.33
2018-06-23T12:15:42.239Z,2.00
2018-06-23T12:18:17.613Z,2.13
2018-06-23T12:20:52.715Z,2.10
2018-06-23T12:23:27.752Z,3.33
2018-06-23T12:26:03.154Z,2.43
2018-06-23T12:28:38.546Z,2.10
2018-06-23T12:31:13.612Z,2.30
2018-06-23T12:33:48.899Z,2.87
2018-06-23T12:36:24.428Z,1.90
2018-06-23T12:38:59.860Z,2.20
2018-06-23T12:41:35.265Z,2.30
2018-06-23T12:44:10.627Z,2.03
2018-06-23T12:46:45.706Z,2.20
2018-06-23T12:49:20.888Z,2.83
2018-06-23T12:51:56.060Z,2.17
2018-06-23T12:54:31.303Z,1.93
2018-06-23T12:57:06.540Z,2.17
2018-06-23T12:59:41.791Z,2.23
2018-06-23T13:02:17.076Z,2.63
2018-06-23T13:04:52.268Z,3.00
2018-06-23T13:07:27.440Z,2.20
2018-06-23T13:10:02.604Z,2.27
2018-06-23T13:12:37.787Z,1.93
2018-06-23T13:15:13.093Z,2.30
2018-06-23T13:17:48.291Z,1.63
2018-06-23T13:20:23.832Z,2.00
2018-06-23T13:22:59.063Z,2.47
2018-06-23T13:25:34.423Z,2.13
2018-06-23T13:28:09.682Z,2.27
2018-06-23T13:30:44.989Z,2.20
2018-06-23T13:33:20.252Z,2.10
2018-06-23T13:35:55.363Z,2.10
2018-06-23T13:38:30.596Z,1.60
2018-06-23T13:41:06.836Z,1.77
2018-06-23T13:43:42.054Z,2.10
2018-06-23T13:46:17.140Z,1.77
2018-06-23T13:48:52.386Z,2.20
2018-06-23T13:51:27.639Z,1.80
2018-06-23T13:54:02.759Z,1.97
2018-06-23T13:56:37.887Z,1.93
2018-06-23T13:59:13.044Z,2.00
2018-06-23T14:01:48.284Z,2.80
2018-06-23T14:04:23.619Z,2.47
2018-06-23T14:06:58.766Z,1.90
2018-06-23T14:09:34.168Z,1.93
2018-06-23T14:12:09.231Z,2.33
2018-06-23T14:14:44.651Z,2.40
2018-06-23T14:17:20.055Z,2.10
2018-06-23T14:19:55.035Z,1.80
2018-06-23T14:22:30.280Z,1.30
2018-06-23T14:25:05.531Z,1.87
2018-06-23T14:27:40.661Z,2.50
2018-06-23T14:30:15.847Z,2.20
2018-06-23T14:32:51.152Z,1.60
2018-06-23T14:35:26.451Z,1.80
2018-06-23T14:38:01.597Z,1.87
2018-06-23T14:40:36.719Z,2.50
2018-06-23T14:43:12.015Z,2.23
2018-06-23T14:45:47.372Z,2.10
2018-06-23T14:48:22.616Z,2.40
2018-06-23T14:50:57.854Z,2.20
2018-06-23T14:53:33.092Z,2.13
2018-06-23T14:56:08.165Z,1.57
2018-06-23T14:58:43.374Z,1.90
2018-06-23T15:01:18.635Z,2.07
2018-06-23T15:03:53.850Z,1.93
2018-06-23T15:06:28.979Z,1.60
2018-06-23T15:09:15.667Z,1.83
2018-06-23T15:12:02.482Z,2.77
2018-06-23T15:14:38.004Z,1.70
2018-06-23T15:17:13.178Z,2.00
2018-06-23T15:19:48.517Z,3.33
2018-06-23T15:22:23.819Z,8.50
2018-06-23T15:24:58.952Z,4.60
2018-06-23T15:27:34.060Z,4.80
2018-06-23T15:30:09.343Z,2.53
2018-06-23T15:32:44.582Z,2.60
2018-06-23T15:35:19.789Z,3.13
2018-06-23T15:37:55.002Z,2.50
2018-06-23T15:40:30.175Z,2.83
2018-06-23T15:43:05.326Z,1.93
2018-06-23T15:45:40.408Z,4.30
2018-06-23T15:48:15.537Z,4.10
2018-06-23T15:50:50.836Z,4.63
2018-06-23T15:53:26.127Z,3.07
2018-06-23T15:56:01.289Z,3.00
2018-06-23T15:58:36.601Z,3.13
2018-06-23T16:01:11.879Z,2.53
2018-06-23T16:03:47.116Z,2.40
2018-06-23T16:06:22.624Z,1.80
2018-06-23T16:08:57.732Z,1.77
2018-06-23T16:11:32.811Z,2.67
2018-06-23T16:14:08.207Z,2.27
2018-06-23T16:16:43.412Z,2.50
2018-06-23T16:19:18.596Z,2.23
2018-06-23T16:21:53.855Z,2.67
2018-06-23T16:24:28.935Z,2.53
2018-06-23T16:27:04.242Z,2.80
2018-06-23T16:29:39.336Z,2.10
2018-06-23T16:32:14.611Z,2.10
2018-06-23T16:34:49.988Z,2.50
2018-06-23T16:37:25.134Z,2.13
2018-06-23T16:40:00.495Z,3.00
2018-06-23T16:42:35.636Z,2.57
2018-06-23T16:45:10.707Z,1.90
2018-06-23T16:50:27.383Z,3.27
2018-06-23T16:53:02.622Z,2.40
2018-06-23T16:55:37.742Z,2.37
2018-06-23T16:58:12.893Z,2.40
2018-06-23T17:00:47.916Z,2.70
2018-06-23T17:03:23.162Z,2.73
2018-06-23T17:05:57.976Z,2.80
2018-06-23T17:08:32.934Z,2.50
2018-06-23T17:11:08.350Z,2.43
2018-06-23T17:13:43.243Z,2.40
2018-06-23T17:16:18.537Z,2.50
2018-06-23T17:18:53.760Z,2.57
2018-06-23T17:21:29.174Z,2.37
2018-06-23T17:24:04.278Z,2.97
2018-06-23T17:26:39.386Z,2.70
2018-06-23T17:29:14.545Z,2.50
2018-06-23T17:31:49.800Z,3.13
2018-06-23T17:34:25.186Z,3.03
2018-06-23T17:37:00.416Z,2.30
2018-06-23T17:39:35.638Z,3.30
2018-06-23T17:42:10.950Z,2.83
2018-06-23T17:44:46.092Z,2.80
2018-06-23T17:47:21.065Z,3.60
2018-06-23T17:49:56.020Z,3.20
2018-06-23T17:52:31.288Z,3.40
2018-06-23T17:55:07.045Z,3.20
2018-06-23T17:57:42.307Z,3.27
2018-06-23T18:00:17.316Z,2.20
2018-06-23T18:02:52.642Z,2.60
2018-06-23T18:05:27.757Z,4.17
2018-06-23T18:08:02.990Z,3.37
2018-06-23T18:10:38.175Z,2.70
2018-06-23T18:13:13.340Z,3.17
2018-06-23T18:15:48.709Z,3.57
2018-06-23T18:18:23.863Z,4.07
2018-06-23T18:20:59.118Z,3.53
2018-06-23T18:23:34.209Z,3.70
2018-06-23T18:26:09.310Z,3.40
2018-06-23T18:28:44.456Z,4.47
2018-06-23T18:31:19.585Z,3.87
2018-06-23T18:33:54.758Z,2.93
2018-06-23T18:36:29.952Z,3.50
2018-06-23T18:39:08.061Z,2.93
2018-06-23T18:41:43.539Z,2.73
2018-06-23T18:44:18.791Z,2.87
2018-06-23T18:46:54.007Z,2.60
2018-06-23T18:49:29.488Z,2.97
2018-06-23T18:52:04.727Z,2.73
2018-06-23T18:54:39.936Z,2.57
2018-06-23T18:57:15.159Z,3.10
2018-06-23T18:59:50.643Z,2.93
2018-06-23T19:02:25.885Z,2.93
2018-06-23T19:05:01.055Z,2.57
2018-06-23T19:07:36.294Z,2.70
2018-06-23T19:10:11.685Z,2.90
2018-06-23T19:12:46.999Z,2.83
2018-06-23T19:15:22.780Z,3.07
2018-06-23T19:17:58.215Z,2.33
2018-06-23T19:20:33.601Z,2.53
2018-06-23T19:23:08.657Z,2.50
2018-06-23T19:25:44.071Z,2.93
2018-06-23T19:28:19.911Z,3.00
2018-06-23T19:30:55.456Z,2.87
2018-06-23T19:33:30.585Z,2.70
2018-06-23T19:36:05.856Z,2.60
2018-06-23T19:38:41.135Z,2.83
2018-06-23T19:41:22.436Z,3.50
2018-06-23T19:43:57.771Z,2.70
2018-06-23T19:46:32.926Z,2.63
2018-06-23T19:49:08.095Z,3.40
2018-06-23T19:51:43.307Z,2.80
2018-06-23T19:54:18.565Z,2.60
2018-06-23T19:56:53.477Z,3.20
2018-06-23T19:59:28.591Z,3.13
2018-06-23T20:02:03.815Z,3.07
2018-06-23T20:04:38.740Z,3.40
2018-06-23T20:07:13.818Z,2.40
2018-06-23T20:09:48.943Z,3.00
2018-06-23T20:12:24.012Z,2.30
2018-06-23T20:14:59.352Z,3.17
2018-06-23T20:17:34.226Z,2.93
2018-06-23T20:20:09.300Z,3.07
2018-06-23T20:22:44.388Z,2.60
2018-06-23T20:25:20.793Z,2.70
2018-06-23T20:27:56.214Z,2.33
2018-06-23T20:30:31.443Z,2.23
2018-06-23T20:33:06.608Z,2.23
2018-06-23T20:35:42.236Z,2.13
2018-06-23T20:38:18.452Z,2.60
2018-06-23T20:40:53.557Z,2.20
2018-06-23T20:43:28.907Z,2.30
2018-06-23T20:46:04.381Z,2.23
2018-06-23T20:48:39.720Z,2.60
2018-06-23T20:51:15.079Z,2.20
2018-06-23T20:53:50.283Z,1.90
2018-06-23T20:56:25.365Z,2.57
2018-06-23T20:59:00.588Z,2.80
2018-06-23T21:01:35.805Z,2.77
2018-06-23T21:04:11.343Z,2.20
2018-06-23T21:06:46.487Z,2.10
2018-06-23T21:09:21.811Z,2.40
2018-06-23T21:11:56.887Z,2.17
2018-06-23T21:14:32.044Z,2.70
2018-06-23T21:17:07.325Z,2.70
2018-06-23T21:19:43.026Z,2.80
2018-06-23T21:22:18.211Z,2.63
2018-06-23T21:24:53.318Z,2.60
2018-06-23T21:27:28.508Z,2.23
2018-06-23T21:30:03.856Z,2.50
2018-06-23T21:32:39.115Z,2.80
2018-06-23T21:35:14.308Z,3.20
2018-06-23T21:37:49.631Z,2.60
2018-06-23T21:40:24.808Z,2.40
2018-06-23T21:42:59.991Z,2.67
2018-06-23T21:45:35.428Z,2.70
2018-06-23T21:48:10.655Z,2.87
2018-06-23T21:50:46.079Z,2.57
2018-06-23T21:53:21.135Z,2.93
2018-06-23T21:55:56.407Z,2.53
2018-06-23T21:58:31.698Z,2.83
2018-06-23T22:01:07.258Z,3.33
2018-06-23T22:03:42.457Z,2.80
2018-06-23T22:06:17.806Z,2.63
2018-06-23T22:08:53.031Z,3.03
2018-06-23T22:11:28.314Z,2.47
2018-06-23T22:14:03.962Z,3.13
2018-06-23T22:16:39.043Z,2.60
2018-06-23T22:19:14.216Z,2.70
2018-06-23T22:21:49.415Z,2.77
2018-06-23T22:24:24.699Z,2.67
2018-06-23T22:27:00.015Z,3.07
2018-06-23T22:29:35.222Z,2.57
2018-06-23T22:32:10.615Z,2.63
2018-06-23T22:34:45.940Z,2.80
2018-06-23T22:37:21.252Z,2.80
2018-06-23T22:39:56.495Z,2.60
2018-06-23T22:42:31.811Z,3.10
2018-06-23T22:45:07.678Z,3.13
2018-06-23T22:47:42.814Z,2.97
2018-06-23T22:50:18.051Z,3.13
2018-06-23T22:52:53.307Z,3.37
2018-06-23T22:55:28.501Z,3.23
2018-06-23T22:58:03.759Z,3.10
2018-06-23T23:00:38.721Z,3.23
2018-06-23T23:03:13.754Z,3.00
2018-06-23T23:05:48.872Z,2.70
2018-06-23T23:08:23.962Z,3.07
2018-06-23T23:10:59.335Z,3.30
2018-06-23T23:13:34.176Z,3.50
2018-06-23T23:16:09.258Z,2.90
2018-06-23T23:18:44.397Z,3.03
2018-06-23T23:21:19.424Z,3.40
2018-06-23T23:23:54.799Z,3.03
2018-06-23T23:26:30.111Z,4.10
2018-06-23T23:29:05.646Z,3.80
2018-06-23T23:31:41.035Z,3.30
2018-06-23T23:34:16.299Z,3.40
2018-06-23T23:36:51.572Z,3.50
2018-06-23T23:39:26.787Z,3.80
2018-06-23T23:42:02.067Z,3.47
2018-06-23T23:44:37.187Z,3.70
2018-06-23T23:47:12.326Z,3.77
2018-06-23T23:49:47.499Z,4.60
2018-06-23T23:52:22.735Z,3.60
2018-06-23T23:54:57.979Z,3.80
2018-06-23T23:57:33.001Z,3.60
